Time;durP1;ratioP1;P1;durP2;ratioP2;P2;SDS_P1;SDS_P2;PMS_P1;PMS_P2;Temp;Humidity;BMP_temperature;BMP_pressure;BME280_temperature;BME280_humidity;BME280_pressure;Samples;Min_cycle;Max_cycle;Signal;HPM_P1;HPM_P2
2022/03/09 00:00:48;;;;;;;30.88;6.75;;;9.70;99.90;;;;;;5065980;28;20024;-73
2022/03/09 00:03:13;;;;;;;28.65;5.78;;;9.70;99.90;;;;;;5084615;28;20027;-74
2022/03/09 00:05:39;;;;;;;37.28;6.13;;;9.60;99.90;;;;;;5084580;28;20032;-75
2022/03/09 00:08:05;;;;;;;30.48;5.43;;;9.60;99.90;;;;;;5066705;28;20032;-73
2022/03/09 00:10:30;;;;;;;32.40;5.60;;;9.60;99.90;;;;;;5081438;28;20313;-73
2022/03/09 00:12:56;;;;;;;35.80;4.85;;;9.60;99.90;;;;;;5074280;28;20023;-72
2022/03/09 00:15:22;;;;;;;28.27;4.90;;;9.70;99.90;;;;;;5079910;28;20029;-73
2022/03/09 00:17:48;;;;;;;33.47;5.78;;;9.70;99.90;;;;;;5079861;28;20033;-72
2022/03/09 00:20:13;;;;;;;23.10;4.57;;;9.60;99.90;;;;;;5079944;28;20021;-74
2022/03/09 00:22:39;;;;;;;39.83;5.55;;;9.60;99.90;;;;;;5079766;28;20235;-73
2022/03/09 00:25:05;;;;;;;27.52;4.50;;;9.50;99.90;;;;;;5079490;28;20024;-72
2022/03/09 00:27:31;;;;;;;34.47;5.55;;;9.50;99.90;;;;;;5062869;28;20024;-72
2022/03/09 00:29:57;;;;;;;28.13;5.30;;;9.40;99.90;;;;;;5063852;28;20327;-73
2022/03/09 00:32:22;;;;;;;26.48;5.15;;;9.40;99.90;;;;;;5062552;28;20300;-74
2022/03/09 00:34:48;;;;;;;24.25;4.68;;;9.30;99.90;;;;;;5063828;28;20025;-73
2022/03/09 00:37:14;;;;;;;38.10;5.18;;;9.20;99.90;;;;;;5079032;28;20094;-73
2022/03/09 00:39:40;;;;;;;27.58;4.68;;;9.20;99.90;;;;;;5063902;28;20024;-73
2022/03/09 00:42:06;;;;;;;31.02;5.22;;;9.20;99.90;;;;;;5062606;28;20021;-74
2022/03/09 00:44:32;;;;;;;22.08;5.10;;;9.20;99.90;;;;;;5063917;28;20025;-73
2022/03/09 00:46:57;;;;;;;21.42;3.95;;;9.20;99.90;;;;;;5062120;28;20035;-72
2022/03/09 00:49:23;;;;;;;23.27;3.92;;;9.10;99.90;;;;;;5062793;28;20032;-72
2022/03/09 00:51:49;;;;;;;25.85;3.90;;;9.10;99.90;;;;;;5079405;28;20323;-73
2022/03/09 00:54:15;;;;;;;33.45;4.68;;;9.10;99.90;;;;;;5063795;28;20036;-74
2022/03/09 00:56:40;;;;;;;24.02;4.03;;;9.00;99.90;;;;;;5062300;28;20021;-75
2022/03/09 00:59:06;;;;;;;30.67;4.55;;;9.00;99.90;;;;;;5063525;28;20048;-74
2022/03/09 01:01:32;;;;;;;24.30;4.40;;;9.00;99.90;;;;;;5078915;28;20021;-74
2022/03/09 01:03:58;;;;;;;35.13;3.90;;;9.00;99.90;;;;;;5062687;28;20025;-74
2022/03/09 01:06:24;;;;;;;32.30;3.92;;;8.90;99.90;;;;;;5063541;28;20059;-74
2022/03/09 01:08:49;;;;;;;36.42;4.35;;;8.90;99.90;;;;;;5062509;28;20308;-74
2022/03/09 01:11:15;;;;;;;35.75;4.18;;;8.90;99.90;;;;;;5061710;28;20098;-74
2022/03/09 01:13:41;;;;;;;23.95;3.97;;;8.80;99.90;;;;;;5079701;28;20024;-74
2022/03/09 01:16:07;;;;;;;26.00;3.92;;;8.70;99.90;;;;;;5099156;28;20218;-73
2022/03/09 01:18:33;;;;;;;34.45;3.88;;;8.70;99.90;;;;;;5082658;28;20096;-72
2022/03/09 01:20:59;;;;;;;28.55;3.80;;;8.70;99.90;;;;;;5082399;28;20016;-74
2022/03/09 01:23:24;;;;;;;20.80;3.45;;;8.70;99.90;;;;;;5083589;28;20016;-75
2022/03/09 01:25:51;;;;;;;24.42;3.47;;;8.70;99.90;;;;;;5082430;28;20242;-73
2022/03/09 01:28:18;;;;;;;22.15;3.70;;;8.60;99.90;;;;;;5083545;28;20029;-74
2022/03/09 01:30:43;;;;;;;25.67;3.65;;;8.60;99.90;;;;;;5048766;28;20083;-75
2022/03/09 01:33:09;;;;;;;29.83;4.13;;;8.60;99.90;;;;;;5082562;28;20035;-74
2022/03/09 01:35:35;;;;;;;19.20;3.17;;;8.60;99.90;;;;;;5083385;28;20291;-74
2022/03/09 01:38:00;;;;;;;27.00;3.45;;;8.50;99.90;;;;;;5082050;28;20023;-74
2022/03/09 01:40:26;;;;;;;21.42;2.92;;;8.50;99.90;;;;;;5082514;28;20028;-74
2022/03/09 01:42:52;;;;;;;33.30;5.00;;;8.50;99.90;;;;;;5098770;28;20047;-74
2022/03/09 01:45:18;;;;;;;33.60;4.32;;;8.50;99.90;;;;;;5099018;28;20092;-74
2022/03/09 01:47:44;;;;;;;28.00;3.42;;;8.40;99.90;;;;;;5082161;28;20052;-74
2022/03/09 01:50:10;;;;;;;22.15;3.38;;;8.40;99.90;;;;;;5069487;28;20338;-73
2022/03/09 01:52:37;;;;;;;28.73;4.75;;;8.40;99.90;;;;;;5086161;28;20075;-73
2022/03/09 01:55:04;;;;;;;24.02;3.40;;;8.30;99.90;;;;;;5086018;28;20059;-73
2022/03/09 01:57:31;;;;;;;28.10;3.70;;;8.30;99.90;;;;;;5087067;28;20017;-73
2022/03/09 01:59:57;;;;;;;28.70;3.15;;;8.30;99.90;;;;;;5086514;28;20016;-74
2022/03/09 02:02:23;;;;;;;38.88;4.72;;;8.20;99.90;;;;;;5102808;28;20360;-75
2022/03/09 02:04:50;;;;;;;29.58;3.72;;;8.20;99.90;;;;;;5086973;28;20016;-73
2022/03/09 02:07:17;;;;;;;31.50;5.47;;;8.10;99.90;;;;;;5086910;28;20374;-72
2022/03/09 02:09:44;;;;;;;26.13;4.25;;;8.10;99.90;;;;;;5085914;28;20029;-75
2022/03/09 02:12:12;;;;;;;30.65;3.95;;;8.10;99.90;;;;;;5080426;28;20043;-72
2022/03/09 02:14:43;;;;;;;29.00;3.97;;;8.10;99.90;;;;;;5065496;28;20017;-72
2022/03/09 02:17:13;;;;;;;31.02;4.22;;;8.10;99.90;;;;;;5065408;28;20032;-74
2022/03/09 02:19:40;;;;;;;34.90;4.32;;;8.10;99.90;;;;;;5082190;28;20193;-75
2022/03/09 02:22:21;;;;;;;25.70;3.22;;;8.10;99.90;;;;;;5082386;28;20025;-73
2022/03/09 02:24:50;;;;;;;25.20;4.90;;;8.10;99.90;;;;;;5081165;28;20016;-73
2022/03/09 02:27:16;;;;;;;22.02;4.38;;;8.00;99.90;;;;;;5081753;28;20032;-74
2022/03/09 02:29:43;;;;;;;21.15;3.85;;;8.00;99.90;;;;;;5065015;28;20154;-75
2022/03/09 02:32:09;;;;;;;25.15;3.67;;;8.00;99.90;;;;;;5066332;28;20052;-74
2022/03/09 02:34:35;;;;;;;23.40;3.47;;;8.00;99.90;;;;;;5065198;28;20067;-74
2022/03/09 02:37:00;;;;;;;23.15;4.22;;;7.90;99.90;;;;;;5065915;28;20047;-74
2022/03/09 02:39:26;;;;;;;19.27;4.07;;;7.90;99.90;;;;;;5081894;28;20021;-74
2022/03/09 02:41:52;;;;;;;22.00;4.03;;;7.80;99.90;;;;;;5065036;28;20083;-72
2022/03/09 02:44:18;;;;;;;18.35;3.53;;;7.80;99.90;;;;;;5065158;28;20017;-74
2022/03/09 02:46:44;;;;;;;25.30;3.67;;;7.80;99.90;;;;;;5064295;28;20021;-73
2022/03/09 02:49:09;;;;;;;22.92;3.58;;;7.80;99.90;;;;;;5065060;28;20090;-73
2022/03/09 02:51:36;;;;;;;33.25;4.22;;;7.80;99.90;;;;;;5064749;28;20021;-73
2022/03/09 02:54:02;;;;;;;26.63;5.25;;;7.80;99.90;;;;;;5081642;28;20063;-71
2022/03/09 02:56:27;;;;;;;27.60;4.85;;;7.80;99.90;;;;;;5081688;28;20045;-71
2022/03/09 02:58:53;;;;;;;22.65;4.05;;;7.80;99.90;;;;;;5081243;28;20048;-73
2022/03/09 03:01:19;;;;;;;23.55;3.35;;;7.90;99.90;;;;;;5065055;28;20021;-73
2022/03/09 03:03:45;;;;;;;24.58;3.10;;;7.90;99.90;;;;;;5064698;28;20048;-71
2022/03/09 03:06:12;;;;;;;29.48;3.30;;;7.80;99.90;;;;;;5065900;28;20031;-72
2022/03/09 03:08:38;;;;;;;25.40;3.20;;;7.80;99.90;;;;;;5080890;28;20017;-74
2022/03/09 03:11:04;;;;;;;27.08;3.80;;;7.80;99.90;;;;;;5063829;28;20048;-73
2022/03/09 03:13:30;;;;;;;21.75;2.67;;;7.80;99.90;;;;;;5079352;28;20353;-74
2022/03/09 03:15:56;;;;;;;16.10;3.05;;;7.80;99.90;;;;;;5084444;28;20040;-72
2022/03/09 03:18:22;;;;;;;24.63;3.80;;;7.80;99.90;;;;;;5101230;28;20023;-73
2022/03/09 03:20:48;;;;;;;25.40;3.90;;;7.70;99.90;;;;;;5067344;28;20028;-75
2022/03/09 03:23:14;;;;;;;23.55;3.30;;;7.70;99.90;;;;;;5085349;28;20016;-73
2022/03/09 03:25:39;;;;;;;23.10;3.15;;;7.70;99.90;;;;;;5101290;28;20047;-74
2022/03/09 03:28:05;;;;;;;22.58;3.28;;;7.60;99.90;;;;;;5101074;28;20047;-73
2022/03/09 03:30:31;;;;;;;33.40;3.20;;;7.60;99.90;;;;;;5084870;28;20028;-71
2022/03/09 03:36:18;;;;;;;18.40;3.10;;;7.50;99.90;;;;;;5084872;28;20023;-73
2022/03/09 03:38:44;;;;;;;21.83;3.15;;;7.50;99.90;;;;;;5100508;28;20024;-72
2022/03/09 03:41:10;;;;;;;26.10;2.83;;;7.50;99.90;;;;;;5083940;28;20088;-72
2022/03/09 03:43:35;;;;;;;28.77;4.07;;;7.40;99.90;;;;;;5066930;28;20025;-72
2022/03/09 03:46:01;;;;;;;25.75;4.05;;;7.40;99.90;;;;;;5084740;28;20028;-72
2022/03/09 03:48:27;;;;;;;17.60;3.53;;;7.50;99.90;;;;;;5084115;28;20052;-73
2022/03/09 03:50:52;;;;;;;21.92;3.63;;;7.50;99.90;;;;;;5083496;28;20028;-72
2022/03/09 03:53:19;;;;;;;21.40;3.60;;;7.50;99.90;;;;;;5085023;28;20024;-72
2022/03/09 03:55:44;;;;;;;31.08;4.68;;;7.40;99.90;;;;;;5066940;28;20040;-72
2022/03/09 03:58:11;;;;;;;23.77;4.75;;;7.40;99.90;;;;;;5083694;28;20299;-72
2022/03/09 04:00:36;;;;;;;22.05;3.95;;;7.40;99.90;;;;;;5100121;28;20249;-73
2022/03/09 04:03:02;;;;;;;29.08;3.92;;;7.30;99.90;;;;;;5100457;28;20024;-72
2022/03/09 04:05:29;;;;;;;23.20;4.20;;;7.30;99.90;;;;;;5083582;28;20032;-73
2022/03/09 04:07:55;;;;;;;22.65;4.63;;;7.30;99.90;;;;;;5100375;28;20025;-73
2022/03/09 04:10:21;;;;;;;20.65;5.32;;;7.30;99.90;;;;;;5084720;28;20032;-71
2022/03/09 04:12:46;;;;;;;21.92;4.60;;;7.20;99.90;;;;;;5072920;28;20036;-72
2022/03/09 04:15:12;;;;;;;21.83;5.05;;;7.20;99.90;;;;;;5063205;28;20062;-73
2022/03/09 04:17:40;;;;;;;28.73;6.68;;;7.20;99.90;;;;;;5080003;28;20029;-72
2022/03/09 04:20:06;;;;;;;23.38;6.32;;;7.20;99.90;;;;;;5079503;28;20069;-74
2022/03/09 04:22:32;;;;;;;24.05;6.28;;;7.20;99.90;;;;;;5064226;28;20111;-73
2022/03/09 04:24:58;;;;;;;23.38;6.70;;;7.20;99.90;;;;;;5063144;28;20051;-72
2022/03/09 04:27:23;;;;;;;20.85;5.65;;;7.10;99.90;;;;;;5064307;28;20020;-73
2022/03/09 04:29:49;;;;;;;23.73;6.78;;;7.10;99.90;;;;;;5079305;28;20029;-72
2022/03/09 04:32:14;;;;;;;23.60;6.75;;;7.10;99.90;;;;;;5062961;28;20180;-73
2022/03/09 04:34:40;;;;;;;30.88;6.85;;;7.10;99.90;;;;;;5062681;28;20032;-73
2022/03/09 04:37:06;;;;;;;19.45;6.15;;;7.10;99.90;;;;;;5079774;28;20048;-73
2022/03/09 04:39:31;;;;;;;22.60;6.90;;;7.10;99.90;;;;;;5062912;28;20304;-72
2022/03/09 04:41:57;;;;;;;27.95;7.03;;;7.10;99.90;;;;;;5063903;28;20029;-74
2022/03/09 04:44:23;;;;;;;31.73;7.53;;;7.10;99.90;;;;;;5062894;28;20100;-73
2022/03/09 04:46:48;;;;;;;26.88;7.20;;;7.10;99.90;;;;;;5079208;28;20032;-73
2022/03/09 04:49:14;;;;;;;25.70;7.50;;;7.10;99.90;;;;;;5062621;28;20033;-73
2022/03/09 04:51:39;;;;;;;26.60;7.45;;;7.10;99.90;;;;;;5062688;28;20067;-71
2022/03/09 04:54:05;;;;;;;20.52;7.30;;;7.10;99.90;;;;;;5079549;28;20039;-73
2022/03/09 04:56:31;;;;;;;28.15;7.82;;;7.10;99.90;;;;;;5062800;28;20033;-72
2022/03/09 04:58:56;;;;;;;31.42;8.15;;;7.10;99.90;;;;;;5063290;28;20197;-73
2022/03/09 05:01:22;;;;;;;29.65;7.65;;;7.10;99.90;;;;;;5061912;28;20017;-72
2022/03/09 05:03:48;;;;;;;25.10;7.55;;;7.10;99.90;;;;;;5063779;28;20289;-73
2022/03/09 05:06:14;;;;;;;18.70;7.13;;;7.20;99.90;;;;;;5062636;28;20327;-72
2022/03/09 05:08:40;;;;;;;25.95;7.55;;;7.10;99.90;;;;;;5062580;28;20070;-72
2022/03/09 05:11:06;;;;;;;25.70;7.35;;;7.10;99.90;;;;;;5062340;28;20300;-72
2022/03/09 05:13:32;;;;;;;24.38;7.47;;;7.10;99.90;;;;;;5077909;28;20029;-73
2022/03/09 05:15:57;;;;;;;20.90;7.45;;;7.10;99.90;;;;;;5063668;28;20024;-73
2022/03/09 05:18:23;;;;;;;31.00;8.75;;;7.10;99.90;;;;;;5062530;28;20041;-73
2022/03/09 05:20:48;;;;;;;29.65;7.82;;;7.20;99.90;;;;;;5063273;28;20212;-72
2022/03/09 05:23:14;;;;;;;41.05;7.03;;;7.10;99.90;;;;;;5080371;28;20103;-73
2022/03/09 05:25:40;;;;;;;26.02;6.00;;;7.10;99.90;;;;;;5067417;28;20017;-71
2022/03/09 05:28:05;;;;;;;28.42;6.13;;;7.00;99.90;;;;;;5066490;28;20029;-72
2022/03/09 05:30:31;;;;;;;28.02;6.50;;;7.00;99.90;;;;;;5066850;28;20024;-72
2022/03/09 05:32:57;;;;;;;29.05;6.65;;;7.00;99.90;;;;;;5066297;28;20031;-72
2022/03/09 05:35:23;;;;;;;28.13;5.57;;;7.10;99.90;;;;;;5067418;28;20119;-73
2022/03/09 05:37:49;;;;;;;25.27;5.80;;;7.20;99.90;;;;;;5066358;28;20017;-72
2022/03/09 05:40:14;;;;;;;33.17;5.97;;;7.20;99.90;;;;;;5065774;28;20378;-72
2022/03/09 05:42:41;;;;;;;27.95;6.57;;;7.30;99.90;;;;;;5066166;28;20035;-72
2022/03/09 05:45:07;;;;;;;28.77;6.47;;;7.30;99.90;;;;;;5082426;28;20311;-73
2022/03/09 05:47:33;;;;;;;34.40;6.10;;;7.30;99.90;;;;;;5065862;28;20248;-72
2022/03/09 05:49:58;;;;;;;22.60;5.38;;;7.40;99.90;;;;;;5065908;28;20021;-72
2022/03/09 05:52:25;;;;;;;35.10;5.68;;;7.40;99.90;;;;;;5066994;28;20086;-71
2022/03/09 05:54:52;;;;;;;21.73;4.72;;;7.50;99.90;;;;;;5082660;28;20063;-75
2022/03/09 05:57:20;;;;;;;19.27;4.43;;;7.50;99.90;;;;;;5082691;28;20048;-73
2022/03/09 05:59:46;;;;;;;32.33;4.93;;;7.50;99.90;;;;;;5081953;28;20071;-73
2022/03/09 06:02:12;;;;;;;22.17;4.43;;;7.40;99.90;;;;;;5082301;28;20385;-74
2022/03/09 06:04:38;;;;;;;22.88;5.13;;;7.40;99.90;;;;;;5066960;28;20017;-72
2022/03/09 06:07:04;;;;;;;28.73;5.03;;;7.50;99.90;;;;;;5066485;28;20071;-73
2022/03/09 06:09:30;;;;;;;26.65;4.47;;;7.40;99.90;;;;;;5066993;28;20029;-73
2022/03/09 06:11:56;;;;;;;22.98;4.35;;;7.40;99.90;;;;;;5067118;28;20032;-74
2022/03/09 06:14:22;;;;;;;24.60;4.45;;;7.40;99.90;;;;;;5067224;28;20087;-73
2022/03/09 06:16:48;;;;;;;35.40;4.88;;;7.40;99.90;;;;;;5086722;28;20047;-73
2022/03/09 06:19:15;;;;;;;31.40;4.82;;;7.40;99.90;;;;;;5085771;28;20145;-73
2022/03/09 06:21:41;;;;;;;43.15;7.28;;;7.50;99.90;;;;;;5085245;28;20188;-73
2022/03/09 06:24:07;;;;;;;38.38;6.28;;;7.50;99.90;;;;;;5086654;28;20074;-74
2022/03/09 06:26:32;;;;;;;45.10;6.38;;;7.50;99.90;;;;;;5068816;28;20027;-72
2022/03/09 06:28:58;;;;;;;40.30;4.85;;;7.60;99.90;;;;;;5086406;28;20029;-73
2022/03/09 06:31:24;;;;;;;32.33;4.55;;;7.60;99.90;;;;;;5085961;28;20100;-72
2022/03/09 06:33:49;;;;;;;35.35;5.10;;;7.70;99.90;;;;;;5085211;28;20017;-73
2022/03/09 06:36:16;;;;;;;30.88;4.10;;;7.70;99.90;;;;;;5084175;28;20091;-73
2022/03/09 06:38:41;;;;;;;144.38;13.05;;;7.70;99.90;;;;;;5084851;28;20059;-72
2022/03/09 06:41:07;;;;;;;39.50;5.38;;;7.80;99.90;;;;;;5086063;28;20228;-72
2022/03/09 06:43:33;;;;;;;49.25;6.63;;;7.90;99.90;;;;;;5101870;28;20330;-72
2022/03/09 06:45:59;;;;;;;32.10;4.95;;;7.90;99.90;;;;;;5086199;28;20192;-73
2022/03/09 06:48:25;;;;;;;43.45;5.40;;;7.90;99.90;;;;;;5084858;28;20145;-73
2022/03/09 06:50:50;;;;;;;59.67;6.90;;;8.00;99.90;;;;;;5084678;28;20349;-73
2022/03/09 06:53:16;;;;;;;60.85;6.80;;;8.00;99.90;;;;;;5085803;28;20031;-74
2022/03/09 06:55:42;;;;;;;59.60;5.82;;;8.00;99.90;;;;;;5084694;28;20354;-74
2022/03/09 06:58:08;;;;;;;35.17;5.43;;;8.00;99.90;;;;;;5084478;28;20028;-76
2022/03/09 07:00:36;;;;;;;33.80;4.47;;;8.10;99.90;;;;;;5085189;28;20028;-72
2022/03/09 07:03:03;;;;;;;46.42;6.10;;;8.10;99.90;;;;;;5085367;28;20267;-73
2022/03/09 07:05:29;;;;;;;36.67;4.55;;;8.10;99.90;;;;;;5101406;28;20025;-74
2022/03/09 07:07:54;;;;;;;50.55;5.88;;;8.10;99.90;;;;;;5085322;28;20067;-73
2022/03/09 07:10:20;;;;;;;31.05;5.05;;;8.10;99.90;;;;;;5084080;28;20052;-73
2022/03/09 07:12:46;;;;;;;31.88;4.63;;;8.10;99.90;;;;;;5091958;28;20013;-72
2022/03/09 07:15:13;;;;;;;30.63;4.40;;;8.10;99.90;;;;;;5079773;28;20259;-75
2022/03/09 07:17:40;;;;;;;22.35;3.47;;;8.10;99.90;;;;;;5081100;28;20220;-74
2022/03/09 07:20:07;;;;;;;26.30;3.53;;;8.20;99.90;;;;;;5065469;28;20103;-74
2022/03/09 07:22:33;;;;;;;31.77;4.63;;;8.20;99.90;;;;;;5065338;28;20207;-74
2022/03/09 07:24:58;;;;;;;31.25;4.00;;;8.30;99.90;;;;;;5063932;28;20048;-76
2022/03/09 07:27:24;;;;;;;46.40;6.35;;;8.30;99.90;;;;;;5065120;28;20021;-77
2022/03/09 07:29:50;;;;;;;35.15;4.07;;;8.40;99.90;;;;;;5063753;28;20032;-74
2022/03/09 07:32:15;;;;;;;32.42;4.38;;;8.40;99.90;;;;;;5064993;28;20327;-74
2022/03/09 07:34:41;;;;;;;107.22;9.73;;;8.40;99.90;;;;;;5065164;28;20012;-75
2022/03/09 07:37:07;;;;;;;39.70;4.90;;;8.50;99.90;;;;;;5064022;28;20207;-74
2022/03/09 07:39:33;;;;;;;105.03;11.75;;;8.50;99.90;;;;;;5063911;28;20028;-74
2022/03/09 07:41:59;;;;;;;49.10;5.70;;;8.50;99.90;;;;;;5063528;28;20100;-75
2022/03/09 07:44:25;;;;;;;134.90;13.35;;;8.60;99.90;;;;;;5080549;28;20041;-75
2022/03/09 07:46:52;;;;;;;61.20;7.85;;;8.70;99.90;;;;;;5064434;28;20075;-74
2022/03/09 07:49:18;;;;;;;35.28;4.95;;;8.90;99.90;;;;;;5080348;28;20030;-75
2022/03/09 07:51:45;;;;;;;84.85;7.65;;;9.00;99.90;;;;;;5079743;28;20024;-74
2022/03/09 07:54:11;;;;;;;47.42;5.63;;;9.20;99.90;;;;;;5063585;28;20087;-75
2022/03/09 07:56:38;;;;;;;47.75;5.10;;;9.30;99.90;;;;;;5063752;28;20037;-77
2022/03/09 07:59:05;;;;;;;37.70;3.92;;;9.40;99.90;;;;;;5079746;28;20025;-74
2022/03/09 08:01:31;;;;;;;25.15;3.78;;;9.50;99.90;;;;;;5080155;28;20199;-73
2022/03/09 08:03:57;;;;;;;31.30;3.50;;;9.60;99.90;;;;;;5064175;28;20031;-75
2022/03/09 08:06:23;;;;;;;27.88;2.78;;;9.60;99.90;;;;;;5064661;28;20020;-75
2022/03/09 08:08:48;;;;;;;30.65;3.22;;;9.70;99.90;;;;;;5064454;28;20040;-77
2022/03/09 08:11:14;;;;;;;29.55;3.75;;;9.80;99.90;;;;;;5064285;28;20311;-74
2022/03/09 08:13:40;;;;;;;25.35;3.40;;;9.80;99.90;;;;;;5079055;28;20342;-76
2022/03/09 08:16:07;;;;;;;34.40;3.67;;;9.90;99.90;;;;;;5056917;28;20040;-73
2022/03/09 08:18:33;;;;;;;38.90;4.05;;;10.00;99.90;;;;;;5078176;28;20029;-74
2022/03/09 08:20:59;;;;;;;43.30;4.10;;;10.10;99.90;;;;;;5062611;28;20074;-76
2022/03/09 08:23:24;;;;;;;26.13;3.33;;;10.10;99.90;;;;;;5077920;28;20070;-74
2022/03/09 08:25:51;;;;;;;25.58;3.60;;;10.20;99.90;;;;;;5083238;28;20017;-73
2022/03/09 08:28:17;;;;;;;63.45;7.18;;;10.40;99.90;;;;;;5052895;28;20067;-73
2022/03/09 08:30:43;;;;;;;37.60;4.25;;;10.40;99.90;;;;;;5070292;28;20070;-74
2022/03/09 08:33:09;;;;;;;36.25;4.20;;;10.40;99.90;;;;;;5067851;28;20028;-74
2022/03/09 08:35:35;;;;;;;85.15;10.90;;;10.50;99.90;;;;;;5062479;28;20314;-74
2022/03/09 08:38:01;;;;;;;27.65;4.18;;;10.30;99.90;;;;;;5073788;28;20024;-74
2022/03/09 08:40:27;;;;;;;44.25;4.80;;;10.30;99.90;;;;;;5070304;28;20033;-72
2022/03/09 08:42:54;;;;;;;17.25;2.83;;;10.40;99.90;;;;;;5087643;28;20285;-75
2022/03/09 08:45:20;;;;;;;29.33;3.88;;;10.40;99.90;;;;;;5077249;28;20021;-73
2022/03/09 08:47:46;;;;;;;28.60;3.25;;;10.50;99.90;;;;;;5063517;28;20174;-72
2022/03/09 08:50:12;;;;;;;27.17;3.78;;;10.70;99.90;;;;;;5086406;28;20397;-72
2022/03/09 08:52:37;;;;;;;22.88;3.50;;;10.70;99.90;;;;;;5073232;28;20027;-73
2022/03/09 08:55:04;;;;;;;18.98;2.63;;;10.60;99.90;;;;;;5077259;28;20020;-74
2022/03/09 08:57:29;;;;;;;43.20;4.57;;;10.70;99.90;;;;;;5071675;28;20319;-73
2022/03/09 08:59:57;;;;;;;30.92;3.45;;;10.70;99.90;;;;;;5070902;28;20017;-73
2022/03/09 09:02:23;;;;;;;21.98;3.47;;;10.70;99.90;;;;;;5083607;28;20032;-73
2022/03/09 09:04:49;;;;;;;32.92;4.35;;;10.90;99.90;;;;;;5081822;28;20024;-74
2022/03/09 09:07:15;;;;;;;42.20;5.45;;;11.00;99.90;;;;;;5083569;28;20226;-72
2022/03/09 09:09:40;;;;;;;29.27;4.25;;;11.20;99.90;;;;;;5072021;28;20084;-74
2022/03/09 09:12:06;;;;;;;22.02;2.80;;;11.20;99.90;;;;;;5072763;28;20227;-75
2022/03/09 09:14:32;;;;;;;22.17;3.47;;;11.10;99.90;;;;;;5083364;28;20025;-72
2022/03/09 09:16:58;;;;;;;37.80;4.55;;;11.00;99.90;;;;;;5076580;28;20063;-73
2022/03/09 09:19:24;;;;;;;17.08;2.60;;;11.00;99.90;;;;;;5073494;28;20016;-74
2022/03/09 09:21:50;;;;;;;35.90;4.03;;;11.00;99.90;;;;;;5082954;28;20083;-75
2022/03/09 09:24:16;;;;;;;23.17;3.00;;;10.90;99.90;;;;;;5056089;28;20029;-76
2022/03/09 09:26:42;;;;;;;20.90;2.83;;;10.90;99.90;;;;;;5079956;28;20300;-76
2022/03/09 09:29:09;;;;;;;30.65;4.00;;;10.90;99.90;;;;;;5063613;28;20072;-72
2022/03/09 09:31:35;;;;;;;27.45;2.50;;;11.00;99.90;;;;;;5071039;28;20035;-71
2022/03/09 09:34:02;;;;;;;27.10;4.20;;;10.90;99.90;;;;;;5061849;28;20017;-73
2022/03/09 09:36:28;;;;;;;17.73;3.30;;;10.90;99.90;;;;;;5062480;28;20025;-70
2022/03/09 09:38:54;;;;;;;24.33;3.13;;;11.10;99.90;;;;;;5066935;28;20350;-73
2022/03/09 09:41:25;;;;;;;34.67;3.83;;;11.20;99.90;;;;;;5064163;28;20025;-75
2022/03/09 09:43:52;;;;;;;34.47;4.18;;;11.30;99.90;;;;;;5080459;28;20028;-76
2022/03/09 09:46:18;;;;;;;18.35;2.90;;;11.40;99.90;;;;;;5081753;28;20032;-76
2022/03/09 09:48:44;;;;;;;28.95;3.65;;;11.50;99.90;;;;;;5075630;28;20064;-74
2022/03/09 09:51:11;;;;;;;20.45;2.55;;;11.40;99.90;;;;;;5081177;28;20027;-78
2022/03/09 09:53:40;;;;;;;19.92;2.63;;;11.50;99.90;;;;;;5079315;28;20013;-75
2022/03/09 09:56:06;;;;;;;18.85;3.47;;;11.50;99.90;;;;;;5061996;28;20020;-75
2022/03/09 09:58:32;;;;;;;26.73;3.67;;;11.50;99.90;;;;;;5061119;28;20021;-73
2022/03/09 10:00:58;;;;;;;25.40;3.72;;;11.60;99.90;;;;;;5044404;28;20032;-73
2022/03/09 10:03:24;;;;;;;29.35;3.67;;;11.60;99.90;;;;;;5079911;28;20020;-76
2022/03/09 10:05:52;;;;;;;24.45;3.33;;;11.60;99.90;;;;;;5084655;28;20021;-75
2022/03/09 10:08:18;;;;;;;35.60;4.00;;;11.80;99.90;;;;;;5081070;28;20039;-73
2022/03/09 10:11:05;;;;;;;18.65;2.70;;;11.80;99.90;;;;;;5078645;28;20024;-76
2022/03/09 10:13:33;;;;;;;42.17;5.20;;;11.80;99.90;;;;;;5075002;28;20023;-74
2022/03/09 10:16:18;;;;;;;15.20;2.85;;;11.60;99.90;;;;;;5069092;28;20021;-79
2022/03/09 10:18:54;;;;;;;18.98;3.38;;;11.80;99.90;;;;;;5079390;28;20335;-81
2022/03/09 10:21:23;;;;;;;20.25;3.03;;;11.90;99.90;;;;;;5065039;28;20025;-78
2022/03/09 10:24:09;;;;;;;15.70;2.72;;;12.00;99.90;;;;;;5062986;28;20017;-75
2022/03/09 10:26:49;;;;;;;16.48;2.28;;;12.10;99.90;;;;;;5063573;28;20047;-75
2022/03/09 10:29:18;;;;;;;27.08;3.60;;;12.10;99.60;;;;;;5080541;28;20063;-73
2022/03/09 10:31:47;;;;;;;16.98;2.72;;;12.30;99.90;;;;;;5077536;28;20032;-74
2022/03/09 10:34:20;;;;;;;24.92;3.05;;;12.30;99.50;;;;;;5083928;28;20044;-76
2022/03/09 10:37:06;;;;;;;23.65;2.72;;;12.20;99.60;;;;;;5080520;28;20032;-73
2022/03/09 10:39:36;;;;;;;31.58;4.07;;;12.20;99.00;;;;;;5050644;28;20017;-74
2022/03/09 10:42:03;;;;;;;14.45;2.22;;;12.20;99.70;;;;;;5059176;28;20116;-72
2022/03/09 10:44:45;;;;;;;21.95;3.17;;;12.30;99.40;;;;;;5046605;28;20024;-71
2022/03/09 10:47:12;;;;;;;17.42;2.95;;;12.20;99.40;;;;;;5063907;28;20300;-73
2022/03/09 10:49:38;;;;;;;18.50;2.85;;;12.30;99.60;;;;;;5063483;28;20119;-74
2022/03/09 10:52:04;;;;;;;23.30;2.70;;;12.50;98.80;;;;;;5065275;28;20039;-72
2022/03/09 10:54:34;;;;;;;14.93;2.47;;;12.40;99.00;;;;;;5064382;28;20025;-75
2022/03/09 10:57:07;;;;;;;30.45;3.40;;;12.30;99.10;;;;;;5063438;28;20029;-77
2022/03/09 10:59:53;;;;;;;21.35;2.47;;;12.20;99.30;;;;;;5064416;28;20016;-74
2022/03/09 11:02:22;;;;;;;18.85;2.65;;;12.10;99.00;;;;;;5066989;28;20037;-75
2022/03/09 11:05:08;;;;;;;17.65;2.17;;;12.00;99.30;;;;;;5064380;28;20075;-75
2022/03/09 11:07:37;;;;;;;15.38;2.50;;;12.20;98.80;;;;;;5084043;28;20031;-76
2022/03/09 11:10:04;;;;;;;17.83;2.20;;;12.20;98.70;;;;;;5080147;28;20070;-73
2022/03/09 11:12:31;;;;;;;18.60;2.88;;;12.10;99.10;;;;;;5080725;28;20087;-74
2022/03/09 11:14:57;;;;;;;11.85;2.30;;;12.10;99.20;;;;;;5084536;28;20045;-71
2022/03/09 11:17:23;;;;;;;23.80;2.42;;;12.20;99.00;;;;;;5087542;28;20017;-74
2022/03/09 11:19:49;;;;;;;19.88;3.25;;;12.20;99.00;;;;;;5084134;28;20306;-72
2022/03/09 11:22:15;;;;;;;19.05;2.72;;;12.30;99.10;;;;;;5064561;28;20028;-74
2022/03/09 11:24:41;;;;;;;16.20;2.70;;;12.30;98.40;;;;;;5064985;28;20024;-79
2022/03/09 11:27:08;;;;;;;20.15;3.40;;;12.40;98.20;;;;;;5072923;28;20051;-74
2022/03/09 11:29:35;;;;;;;23.83;2.63;;;12.40;98.20;;;;;;5084089;28;20219;-74
2022/03/09 11:32:06;;;;;;;17.92;2.53;;;12.40;98.10;;;;;;5073567;28;20039;-76
2022/03/09 11:34:50;;;;;;;16.15;2.25;;;12.50;98.30;;;;;;5063273;28;20036;-75
2022/03/09 11:37:20;;;;;;;20.73;2.60;;;12.70;98.10;;;;;;5064210;28;20028;-75
2022/03/09 11:40:07;;;;;;;25.15;2.80;;;12.80;97.70;;;;;;5062939;28;20324;-73
2022/03/09 11:42:34;;;;;;;16.88;2.25;;;13.00;97.60;;;;;;5049400;28;20341;-76
2022/03/09 11:45:30;;;;;;;15.23;2.00;;;13.00;96.90;;;;;;5046479;28;20033;-76
2022/03/09 11:48:07;;;;;;;14.05;2.00;;;12.90;97.00;;;;;;5062892;28;20343;-74
2022/03/09 11:50:56;;;;;;;13.65;1.65;;;12.90;97.20;;;;;;5065791;28;20120;-76
2022/03/09 11:53:43;;;;;;;31.13;3.83;;;13.10;97.50;;;;;;5081273;28;20066;-74
2022/03/09 11:56:32;;;;;;;20.77;2.88;;;13.00;97.20;;;;;;5065926;28;20313;-73
2022/03/09 11:59:19;;;;;;;22.20;2.45;;;13.10;97.40;;;;;;5082709;28;20065;-72
2022/03/09 12:02:12;;;;;;;17.83;2.30;;;13.30;97.10;;;;;;5075182;28;20021;-74
2022/03/09 12:04:45;;;;;;;15.48;2.30;;;13.20;96.80;;;;;;5062909;28;20033;-76
2022/03/09 12:07:34;;;;;;;15.18;2.22;;;12.90;97.10;;;;;;5063427;28;20296;-77
2022/03/09 12:10:04;;;;;;;17.27;3.25;;;12.80;97.70;;;;;;5068926;28;20012;-75
2022/03/09 12:12:32;;;;;;;16.33;2.83;;;13.00;97.50;;;;;;5074272;28;20016;-75
2022/03/09 12:15:18;;;;;;;16.58;2.95;;;13.30;97.10;;;;;;5082767;28;20299;-75
2022/03/09 12:17:47;;;;;;;20.30;2.63;;;13.30;96.90;;;;;;5055309;28;20033;-75
2022/03/09 12:20:29;;;;;;;16.70;3.00;;;13.30;96.60;;;;;;5078044;28;20024;-78
2022/03/09 12:23:09;;;;;;;14.77;2.15;;;13.20;97.00;;;;;;5073448;28;20247;-77
2022/03/09 12:25:53;;;;;;;22.67;2.33;;;13.10;97.00;;;;;;5074429;28;20112;-76
2022/03/09 12:28:43;;;;;;;12.90;2.28;;;13.10;97.10;;;;;;5063173;28;20298;-73
2022/03/09 12:31:19;;;;;;;19.95;2.78;;;13.30;97.10;;;;;;5048584;28;20021;-75
2022/03/09 12:33:50;;;;;;;73.50;7.55;;;13.60;96.90;;;;;;5085179;28;20047;-74
2022/03/09 12:36:18;;;;;;;25.50;2.80;;;13.80;96.60;;;;;;5064020;28;20028;-76
2022/03/09 12:38:49;;;;;;;21.88;3.15;;;13.90;96.40;;;;;;5066810;28;20056;-77
2022/03/09 12:41:38;;;;;;;21.42;3.35;;;14.10;96.30;;;;;;5080878;28;20093;-73
2022/03/09 12:44:07;;;;;;;13.15;2.20;;;14.30;96.00;;;;;;5064123;28;20031;-75
2022/03/09 12:46:35;;;;;;;44.72;5.40;;;14.40;95.70;;;;;;5061478;28;20021;-74
2022/03/09 12:49:04;;;;;;;14.27;2.63;;;14.50;95.70;;;;;;5061488;28;20060;-73